createdAt,value
2022-09-15T00:01:04.773Z,14.88
2022-09-15T00:03:31.853Z,13.38
2022-09-15T00:05:58.885Z,15.68
2022-09-15T00:08:26.506Z,14.93
2022-09-15T00:11:02.713Z,13.70
2022-09-15T00:13:29.922Z,16.85
2022-09-15T00:15:56.927Z,15.60
2022-09-15T00:18:24.435Z,12.80
2022-09-15T00:20:51.411Z,14.43
2022-09-15T00:23:18.929Z,14.68
2022-09-15T00:25:50.929Z,13.57
2022-09-15T00:28:21.211Z,11.75
2022-09-15T00:30:50.280Z,8.98
2022-09-15T00:33:18.450Z,10.52
2022-09-15T00:35:47.108Z,11.45
2022-09-15T00:38:15.550Z,10.15
2022-09-15T00:40:57.120Z,8.98
2022-09-15T00:43:42.936Z,9.30
2022-09-15T00:46:10.599Z,8.27
2022-09-15T00:48:41.794Z,15.60
2022-09-15T00:51:10.464Z,10.10
2022-09-15T00:53:37.596Z,11.73
2022-09-15T00:56:06.495Z,15.77
2022-09-15T00:58:38.581Z,9.50
2022-09-15T01:01:08.281Z,9.95
2022-09-15T01:03:36.900Z,10.30
2022-09-15T01:06:20.069Z,16.63
2022-09-15T01:08:57.968Z,10.65
2022-09-15T01:11:25.173Z,14.23
2022-09-15T01:13:52.202Z,11.15
2022-09-15T01:16:42.250Z,13.00
2022-09-15T01:19:32.487Z,7.93
2022-09-15T01:22:32.819Z,8.77
2022-09-15T01:25:08.629Z,8.35
2022-09-15T01:27:42.516Z,9.38
2022-09-15T01:30:19.610Z,8.40
2022-09-15T01:33:04.431Z,8.90
2022-09-15T01:35:52.586Z,10.70
2022-09-15T01:39:08.608Z,10.00
2022-09-15T01:41:35.717Z,9.60
2022-09-15T01:44:28.102Z,10.75
2022-09-15T01:47:00.474Z,11.38
2022-09-15T01:49:34.279Z,13.15
2022-09-15T01:52:01.935Z,14.90
2022-09-15T01:54:36.077Z,15.40
2022-09-15T01:57:03.563Z,14.57
2022-09-15T01:59:30.524Z,12.38
2022-09-15T02:02:00.242Z,11.63
2022-09-15T02:04:36.879Z,13.23
2022-09-15T02:07:24.359Z,18.30
2022-09-15T02:09:58.458Z,12.70
2022-09-15T02:12:39.719Z,11.98
2022-09-15T02:15:15.249Z,11.30
2022-09-15T02:17:50.686Z,13.20
2022-09-15T02:20:33.279Z,12.15
2022-09-15T02:23:08.560Z,16.35
2022-09-15T02:25:41.891Z,19.35
2022-09-15T02:28:11.805Z,15.10
2022-09-15T02:30:42.150Z,13.82
2022-09-15T02:33:14.981Z,16.45
2022-09-15T02:35:42.440Z,14.07
2022-09-15T02:38:10.894Z,15.82
2022-09-15T02:40:42.542Z,13.52
2022-09-15T02:43:14.930Z,18.67
2022-09-15T02:45:42.211Z,15.52
2022-09-15T02:48:09.931Z,17.67
2022-09-15T02:50:38.423Z,19.00
2022-09-15T02:53:05.612Z,18.45
2022-09-15T02:55:32.696Z,15.20
2022-09-15T02:58:00.190Z,18.55
2022-09-15T03:00:28.542Z,18.55
2022-09-15T03:02:56.311Z,19.20
2022-09-15T03:05:28.770Z,22.80
2022-09-15T03:07:56.499Z,19.20
2022-09-15T03:10:25.027Z,18.65
2022-09-15T03:12:54.577Z,20.52
2022-09-15T03:15:24.251Z,25.92
2022-09-15T03:17:51.857Z,17.65
2022-09-15T03:20:24.076Z,17.75
2022-09-15T03:22:51.237Z,18.95
2022-09-15T03:25:18.550Z,23.90
2022-09-15T03:27:45.864Z,23.88
2022-09-15T03:30:14.076Z,30.35
2022-09-15T03:32:41.422Z,21.38
2022-09-15T03:35:08.987Z,30.30
2022-09-15T03:37:35.986Z,30.90
2022-09-15T03:40:03.957Z,24.45
2022-09-15T03:42:31.200Z,23.85
2022-09-15T03:44:58.347Z,24.23
2022-09-15T03:47:26.066Z,21.35
2022-09-15T03:49:53.115Z,27.42
2022-09-15T03:52:20.039Z,26.23
2022-09-15T03:54:48.977Z,26.83
2022-09-15T03:57:15.889Z,27.35
2022-09-15T04:02:09.871Z,26.15
2022-09-15T04:04:37.078Z,32.08
2022-09-15T04:07:04.056Z,33.42
2022-09-15T04:09:31.836Z,28.27
2022-09-15T04:11:58.818Z,32.13
2022-09-15T04:14:25.872Z,30.30
2022-09-15T04:16:52.982Z,28.50
2022-09-15T04:19:19.998Z,24.33
2022-09-15T04:21:47.694Z,31.10
2022-09-15T04:24:14.698Z,27.83
2022-09-15T04:26:41.808Z,24.63
2022-09-15T04:29:14.898Z,22.35
2022-09-15T04:31:42.547Z,25.77
2022-09-15T04:34:10.399Z,20.65
2022-09-15T04:36:37.633Z,17.88
2022-09-15T04:39:06.222Z,24.40
2022-09-15T04:41:33.889Z,23.67
2022-09-15T04:44:01.032Z,18.85
2022-09-15T04:46:28.183Z,24.48
2022-09-15T04:48:56.252Z,21.60
2022-09-15T04:51:24.121Z,21.95
2022-09-15T04:53:52.364Z,19.73
2022-09-15T04:56:24.674Z,21.90
2022-09-15T04:58:55.167Z,22.40
2022-09-15T05:01:27.608Z,22.48
2022-09-15T05:03:55.220Z,24.50
2022-09-15T05:06:24.944Z,31.33
2022-09-15T05:08:53.825Z,21.70
2022-09-15T05:11:21.594Z,26.08
2022-09-15T05:13:49.139Z,24.33
2022-09-15T05:16:21.910Z,23.30
2022-09-15T05:18:51.020Z,21.90
2022-09-15T05:21:20.447Z,26.30
2022-09-15T05:23:48.605Z,25.08
2022-09-15T05:26:18.405Z,21.80
2022-09-15T05:28:45.558Z,23.25
2022-09-15T05:31:24.490Z,20.60
2022-09-15T05:33:53.407Z,25.25
2022-09-15T05:36:25.441Z,19.98
2022-09-15T05:38:58.643Z,22.42
2022-09-15T05:41:27.007Z,28.92
2022-09-15T05:43:57.240Z,21.98
2022-09-15T05:46:27.686Z,20.73
2022-09-15T05:48:57.097Z,21.85
2022-09-15T05:51:24.715Z,22.35
2022-09-15T05:53:52.175Z,21.85
2022-09-15T05:56:20.563Z,19.05
2022-09-15T05:58:49.071Z,17.30
2022-09-15T06:01:34.619Z,18.38
2022-09-15T06:04:01.863Z,20.08
2022-09-15T06:06:31.778Z,21.83
2022-09-15T06:09:01.184Z,16.23
2022-09-15T06:11:30.629Z,23.13
2022-09-15T06:14:03.348Z,22.80
2022-09-15T06:16:34.147Z,26.83
2022-09-15T06:19:01.644Z,22.08
2022-09-15T06:21:29.931Z,23.60
2022-09-15T06:24:02.168Z,26.48
2022-09-15T06:26:29.590Z,25.83
2022-09-15T06:28:59.055Z,24.80
2022-09-15T06:31:28.263Z,25.55
2022-09-15T06:33:57.266Z,28.35
2022-09-15T06:36:26.975Z,22.42
2022-09-15T06:38:54.843Z,23.58
2022-09-15T06:41:22.009Z,19.30
2022-09-15T06:43:49.649Z,24.05
2022-09-15T06:46:21.113Z,31.75
2022-09-15T06:48:48.890Z,23.45
2022-09-15T06:51:17.490Z,33.05
2022-09-15T06:53:44.905Z,27.05
2022-09-15T06:56:14.780Z,26.25
2022-09-15T06:58:43.444Z,28.90
2022-09-15T07:01:19.289Z,34.85
2022-09-15T07:03:46.959Z,24.67
2022-09-15T07:06:14.030Z,28.83
2022-09-15T07:08:42.045Z,27.98
2022-09-15T07:11:10.510Z,34.95
2022-09-15T07:13:38.063Z,29.38
2022-09-15T07:16:07.869Z,30.55
2022-09-15T07:18:39.707Z,37.70
2022-09-15T07:21:12.390Z,37.75
2022-09-15T07:23:40.173Z,38.72
2022-09-15T07:26:10.791Z,32.28
2022-09-15T07:28:40.668Z,36.63
2022-09-15T07:31:09.267Z,35.10
2022-09-15T07:33:36.530Z,35.95
2022-09-15T07:36:08.199Z,35.45
2022-09-15T07:38:35.826Z,35.90
2022-09-15T07:41:04.751Z,34.28
2022-09-15T07:43:32.063Z,44.15
2022-09-15T07:46:00.584Z,38.28
2022-09-15T07:48:28.166Z,36.50
2022-09-15T07:50:55.213Z,44.08
2022-09-15T07:53:23.042Z,39.63
2022-09-15T07:55:54.025Z,31.80
2022-09-15T07:58:21.846Z,35.55
2022-09-15T08:00:49.265Z,32.25
2022-09-15T08:03:16.888Z,37.63
2022-09-15T08:05:45.858Z,42.10
2022-09-15T08:08:13.339Z,37.13
2022-09-15T08:10:41.566Z,34.33
2022-09-15T08:13:08.654Z,32.60
2022-09-15T08:15:37.592Z,35.67
2022-09-15T08:18:05.654Z,28.20
2022-09-15T08:20:33.622Z,34.10
2022-09-15T08:23:00.888Z,37.95
2022-09-15T08:25:27.879Z,37.53
2022-09-15T08:27:56.486Z,33.30
2022-09-15T08:30:24.088Z,41.13
2022-09-15T08:32:51.643Z,30.55
2022-09-15T08:35:19.647Z,27.95
2022-09-15T08:37:47.168Z,30.42
2022-09-15T08:40:29.091Z,36.17
2022-09-15T08:43:00.179Z,25.58
2022-09-15T08:45:32.626Z,31.02
2022-09-15T08:48:03.533Z,32.38
2022-09-15T08:50:42.174Z,16.52
2022-09-15T08:53:19.850Z,23.25
2022-09-15T08:55:50.791Z,17.90
2022-09-15T08:58:25.725Z,18.50
2022-09-15T09:01:03.390Z,22.45
2022-09-15T09:03:48.983Z,16.73
2022-09-15T09:06:40.163Z,17.85
2022-09-15T09:09:20.216Z,16.13
2022-09-15T09:11:53.944Z,15.60
2022-09-15T09:14:49.722Z,15.52
2022-09-15T09:17:50.527Z,15.65
2022-09-15T09:20:40.173Z,10.63
2022-09-15T09:23:16.478Z,11.15
2022-09-15T09:25:44.818Z,16.00
2022-09-15T09:28:42.126Z,13.35
2022-09-15T09:31:18.750Z,10.43
2022-09-15T09:34:15.336Z,11.73
2022-09-15T09:36:42.937Z,9.13
2022-09-15T09:39:14.526Z,12.60
2022-09-15T09:41:42.598Z,11.77
2022-09-15T09:44:15.329Z,14.48
2022-09-15T09:46:43.162Z,7.47
2022-09-15T09:49:26.293Z,9.52
2022-09-15T09:52:04.762Z,6.93
2022-09-15T09:54:34.083Z,9.52
2022-09-15T09:57:28.892Z,7.10
2022-09-15T09:59:56.003Z,9.15
2022-09-15T10:02:29.538Z,10.30
2022-09-15T10:05:19.779Z,6.80
2022-09-15T10:07:47.359Z,6.20
2022-09-15T10:10:23.844Z,12.30
2022-09-15T10:12:55.264Z,6.20
2022-09-15T10:15:27.231Z,7.07
2022-09-15T10:17:56.043Z,4.32
2022-09-15T10:20:35.915Z,5.03
2022-09-15T10:23:27.756Z,7.10
2022-09-15T10:26:32.358Z,5.65
2022-09-15T10:29:18.816Z,4.13
2022-09-15T10:31:46.399Z,6.93
2022-09-15T10:34:31.039Z,9.63
2022-09-15T10:37:27.421Z,10.52
2022-09-15T10:39:56.709Z,12.38
2022-09-15T10:42:42.448Z,5.75
2022-09-15T10:45:22.987Z,8.52
2022-09-15T10:47:59.229Z,9.80
2022-09-15T10:50:31.169Z,5.93
2022-09-15T10:53:24.146Z,5.50
2022-09-15T10:56:00.121Z,7.45
2022-09-15T10:58:30.119Z,6.43
2022-09-15T11:01:19.076Z,6.93
2022-09-15T11:04:05.045Z,5.50
2022-09-15T11:06:53.027Z,8.52
2022-09-15T11:09:26.129Z,7.28
2022-09-15T11:12:04.900Z,13.50
2022-09-15T11:15:06.167Z,9.82
2022-09-15T11:17:45.297Z,9.10
2022-09-15T11:20:30.876Z,5.32
2022-09-15T11:23:04.849Z,9.80
2022-09-15T11:25:41.211Z,8.18
2022-09-15T11:28:15.976Z,6.90
2022-09-15T11:30:53.298Z,7.13
2022-09-15T11:33:27.350Z,6.65
2022-09-15T11:36:19.656Z,6.28
2022-09-15T11:39:04.549Z,11.30
2022-09-15T11:41:43.648Z,7.32
2022-09-15T11:44:17.041Z,4.35
2022-09-15T11:47:05.464Z,3.92
2022-09-15T11:49:57.359Z,2.08
2022-09-15T11:52:42.840Z,6.72
2022-09-15T11:55:25.083Z,6.47
2022-09-15T11:58:09.142Z,5.43
2022-09-15T12:00:43.874Z,7.75
2022-09-15T12:03:16.674Z,5.50
2022-09-15T12:06:17.064Z,8.70
2022-09-15T12:09:00.944Z,7.53
2022-09-15T12:11:31.497Z,7.70
2022-09-15T12:14:00.107Z,5.45
2022-09-15T12:16:31.859Z,6.57
2022-09-15T12:19:15.933Z,5.43
2022-09-15T12:21:56.324Z,9.18
2022-09-15T12:24:32.835Z,11.90
2022-09-15T12:27:01.337Z,5.05
2022-09-15T12:29:28.410Z,6.97
2022-09-15T12:32:17.272Z,6.35
2022-09-15T12:35:04.069Z,5.70
2022-09-15T12:37:40.059Z,3.25
2022-09-15T12:40:25.408Z,7.00
2022-09-15T12:42:52.824Z,3.65
2022-09-15T12:45:27.437Z,7.47
2022-09-15T12:48:06.520Z,5.70
2022-09-15T12:50:40.786Z,6.80
2022-09-15T12:53:24.904Z,6.07
2022-09-15T12:56:00.892Z,4.07
2022-09-15T12:59:06.686Z,8.43
2022-09-15T13:01:48.666Z,2.95
2022-09-15T13:04:44.315Z,6.50
2022-09-15T13:07:17.500Z,6.32
2022-09-15T13:10:08.861Z,5.70
2022-09-15T13:12:41.298Z,3.53
2022-09-15T13:15:16.122Z,6.50
2022-09-15T13:17:47.335Z,4.45
2022-09-15T13:20:24.901Z,2.63
2022-09-15T13:22:54.923Z,6.18
2022-09-15T13:25:29.265Z,3.97
2022-09-15T13:28:00.215Z,7.38
2022-09-15T13:31:01.115Z,10.13
2022-09-15T13:40:33.750Z,6.80
2022-09-15T13:43:35.317Z,5.85
2022-09-15T13:46:37.090Z,3.40
2022-09-15T13:49:27.499Z,5.05
2022-09-15T13:52:03.322Z,3.15
2022-09-15T13:54:30.325Z,6.70
2022-09-15T13:57:02.059Z,4.95
2022-09-15T13:59:32.058Z,5.47
2022-09-15T14:02:00.702Z,6.82
2022-09-15T14:04:31.407Z,2.92
2022-09-15T14:07:01.302Z,6.07
2022-09-15T14:09:33.362Z,6.30
2022-09-15T14:12:12.322Z,3.17
2022-09-15T14:14:44.743Z,3.67
2022-09-15T14:17:24.681Z,5.13
2022-09-15T14:19:54.123Z,4.10
2022-09-15T14:22:21.044Z,4.28
2022-09-15T14:24:50.228Z,6.97
2022-09-15T14:27:23.684Z,7.70
2022-09-15T14:29:55.450Z,5.85
2022-09-15T14:32:22.545Z,6.55
2022-09-15T14:34:51.139Z,4.97
2022-09-15T14:37:24.143Z,4.28
2022-09-15T14:39:54.946Z,6.00
2022-09-15T14:42:29.685Z,4.18
2022-09-15T14:48:00.271Z,5.30
2022-09-15T14:50:32.469Z,6.95
2022-09-15T14:53:06.713Z,5.25
2022-09-15T14:55:55.931Z,4.07
2022-09-15T14:58:32.844Z,4.60
2022-09-15T15:01:27.538Z,11.27
2022-09-15T15:04:24.610Z,7.82
2022-09-15T15:06:59.177Z,3.05
2022-09-15T15:09:40.546Z,6.40
2022-09-15T15:12:19.335Z,4.78
2022-09-15T15:14:46.656Z,5.70
2022-09-15T15:17:38.591Z,8.35
2022-09-15T15:20:08.842Z,3.35
2022-09-15T15:22:36.988Z,8.10
2022-09-15T15:25:32.503Z,8.15
2022-09-15T15:28:03.233Z,7.47
2022-09-15T15:30:30.884Z,3.42
2022-09-15T15:33:18.827Z,3.03
2022-09-15T15:35:46.905Z,5.68
2022-09-15T15:38:17.910Z,3.97
2022-09-15T15:40:46.114Z,12.65
2022-09-15T15:43:22.193Z,4.80
2022-09-15T15:46:01.221Z,6.47
2022-09-15T15:48:33.995Z,5.35
2022-09-15T15:51:07.067Z,6.38
2022-09-15T15:53:34.738Z,2.75
2022-09-15T15:56:01.805Z,5.03
2022-09-15T15:58:28.928Z,4.47
2022-09-15T16:00:57.267Z,5.00
2022-09-15T16:03:25.168Z,4.97
2022-09-15T16:05:54.838Z,3.40
2022-09-15T16:08:32.024Z,4.47
2022-09-15T16:13:27.765Z,6.32
2022-09-15T16:15:57.001Z,3.50
2022-09-15T16:18:24.242Z,5.20
2022-09-15T16:20:51.288Z,6.22
2022-09-15T16:23:20.522Z,5.40
2022-09-15T16:26:16.039Z,1.98
2022-09-15T16:28:43.032Z,6.20
2022-09-15T16:31:14.739Z,4.90
2022-09-15T16:33:42.878Z,7.50
2022-09-15T16:36:14.871Z,3.78
2022-09-15T16:38:43.053Z,3.25
2022-09-15T16:41:19.212Z,3.45
2022-09-15T16:43:47.105Z,5.78
2022-09-15T16:46:15.339Z,4.60
2022-09-15T16:48:44.044Z,3.88
2022-09-15T16:51:28.823Z,4.65
2022-09-15T16:53:57.999Z,2.42
2022-09-15T16:56:25.082Z,2.55
2022-09-15T16:58:58.777Z,4.07
2022-09-15T17:01:27.026Z,3.03
2022-09-15T17:03:54.013Z,2.47
2022-09-15T17:06:22.266Z,4.10
2022-09-15T17:08:49.656Z,6.38
2022-09-15T17:11:19.992Z,3.00
2022-09-15T17:13:47.545Z,3.85
2022-09-15T17:16:19.419Z,2.78
2022-09-15T17:18:47.004Z,4.45
2022-09-15T17:21:16.234Z,2.70
2022-09-15T17:23:45.967Z,5.78
2022-09-15T17:26:28.791Z,3.00
2022-09-15T17:28:58.551Z,4.07
2022-09-15T17:31:26.008Z,2.67
2022-09-15T17:33:53.292Z,3.38
2022-09-15T17:36:20.654Z,3.13
2022-09-15T17:38:49.135Z,6.40
2022-09-15T17:41:18.284Z,2.47
2022-09-15T17:43:45.596Z,4.00
2022-09-15T17:46:13.009Z,2.03
2022-09-15T17:48:40.340Z,4.35
2022-09-15T17:51:10.063Z,2.90
2022-09-15T17:53:37.336Z,4.55
2022-09-15T17:56:04.371Z,3.50
2022-09-15T17:58:32.167Z,5.53
2022-09-15T18:00:59.894Z,4.45
2022-09-15T18:03:34.984Z,3.65
2022-09-15T18:06:05.421Z,3.80
2022-09-15T18:08:33.376Z,6.03
2022-09-15T18:11:00.915Z,5.20
2022-09-15T18:13:30.081Z,5.65
2022-09-15T18:15:58.150Z,2.33
2022-09-15T18:18:27.869Z,3.78
2022-09-15T18:20:58.037Z,7.03
2022-09-15T18:23:26.711Z,6.05
2022-09-15T18:25:53.785Z,3.03
2022-09-15T18:28:20.894Z,3.88
2022-09-15T18:30:49.395Z,4.60
2022-09-15T18:33:23.904Z,4.22
2022-09-15T18:35:53.063Z,3.97
2022-09-15T18:38:20.144Z,3.92
2022-09-15T18:40:53.600Z,4.90
2022-09-15T18:43:21.980Z,5.13
2022-09-15T18:45:53.419Z,5.85
2022-09-15T18:48:20.499Z,6.10
2022-09-15T18:50:47.631Z,4.72
2022-09-15T18:53:14.681Z,3.97
2022-09-15T18:55:42.338Z,2.97
2022-09-15T18:58:10.340Z,4.43
2022-09-15T19:00:37.889Z,5.03
2022-09-15T19:03:10.828Z,4.65
2022-09-15T19:05:38.768Z,8.00
2022-09-15T19:08:08.476Z,5.88
2022-09-15T19:10:35.856Z,7.45
2022-09-15T19:13:03.181Z,7.82
2022-09-15T19:15:31.601Z,4.05
2022-09-15T19:18:18.205Z,5.18
2022-09-15T19:20:45.754Z,5.00
2022-09-15T19:23:12.899Z,5.93
2022-09-15T19:25:42.905Z,6.38
2022-09-15T19:28:09.966Z,3.70
2022-09-15T19:30:37.303Z,7.78
2022-09-15T19:33:05.212Z,4.53
2022-09-15T19:35:32.115Z,4.20
2022-09-15T19:37:59.111Z,7.05
2022-09-15T19:40:26.300Z,4.90
2022-09-15T19:42:53.297Z,4.35
2022-09-15T19:45:20.321Z,4.80
2022-09-15T19:47:47.336Z,10.82
2022-09-15T19:50:14.474Z,5.82
2022-09-15T19:52:41.652Z,9.20
2022-09-15T19:55:09.877Z,8.95
2022-09-15T19:57:41.329Z,5.00
2022-09-15T20:00:10.526Z,6.18
2022-09-15T20:02:37.719Z,6.55
2022-09-15T20:05:05.357Z,3.97
2022-09-15T20:07:32.685Z,5.78
2022-09-15T20:09:59.657Z,4.38
2022-09-15T20:12:26.905Z,8.55
2022-09-15T20:14:53.919Z,5.43
2022-09-15T20:17:20.928Z,5.65
2022-09-15T20:19:47.861Z,5.20
2022-09-15T20:22:15.133Z,4.60
2022-09-15T20:24:42.178Z,6.97
2022-09-15T20:27:09.294Z,6.53
2022-09-15T20:29:36.824Z,4.63
2022-09-15T20:32:03.908Z,4.63
2022-09-15T20:34:30.828Z,3.85
2022-09-15T20:36:58.088Z,5.63
2022-09-15T20:39:25.104Z,4.80
2022-09-15T20:41:52.115Z,7.28
2022-09-15T20:44:19.092Z,5.85
2022-09-15T20:46:46.021Z,4.32
2022-09-15T20:49:13.026Z,5.32
2022-09-15T20:51:40.140Z,5.30
2022-09-15T20:54:07.141Z,8.55
2022-09-15T20:56:35.563Z,6.32
2022-09-15T20:59:04.756Z,4.13
2022-09-15T21:01:37.899Z,4.72
2022-09-15T21:04:06.232Z,9.63
2022-09-15T21:06:33.626Z,4.78
2022-09-15T21:09:01.035Z,5.20
2022-09-15T21:11:29.006Z,6.88
2022-09-15T21:13:56.763Z,8.50
2022-09-15T21:16:26.291Z,5.75
2022-09-15T21:18:53.947Z,10.55
2022-09-15T21:21:22.143Z,4.07
2022-09-15T21:23:51.885Z,7.40
2022-09-15T21:26:24.437Z,12.65
2022-09-15T21:28:51.956Z,5.68
2022-09-15T21:31:24.688Z,8.88
2022-09-15T21:33:52.625Z,11.88
2022-09-15T21:36:24.765Z,12.52
2022-09-15T21:38:53.888Z,6.60
2022-09-15T21:41:25.950Z,12.35
2022-09-15T21:43:55.254Z,6.82
2022-09-15T21:46:24.756Z,5.20
2022-09-15T21:48:52.279Z,7.05
2022-09-15T21:51:24.678Z,6.28
2022-09-15T21:53:56.612Z,7.25
2022-09-15T21:56:24.818Z,5.80
2022-09-15T21:58:52.035Z,6.65
2022-09-15T22:01:23.684Z,9.05
2022-09-15T22:04:02.030Z,8.15
2022-09-15T22:06:34.993Z,11.30
2022-09-15T22:09:04.695Z,4.90
2022-09-15T22:11:31.824Z,5.03
2022-09-15T22:13:59.369Z,6.47
2022-09-15T22:16:26.429Z,2.95
2022-09-15T22:18:53.674Z,6.35
2022-09-15T22:21:24.169Z,8.32
2022-09-15T22:23:53.745Z,6.45
2022-09-15T22:26:29.592Z,5.82
2022-09-15T22:28:57.255Z,8.38
2022-09-15T22:31:25.200Z,6.65
2022-09-15T22:33:52.755Z,5.93
2022-09-15T22:36:27.993Z,5.65
2022-09-15T22:38:56.654Z,6.63
2022-09-15T22:41:25.981Z,4.63
2022-09-15T22:43:53.052Z,5.00
2022-09-15T22:46:21.107Z,3.58
2022-09-15T22:48:48.384Z,5.22
2022-09-15T22:51:16.550Z,10.13
2022-09-15T22:53:43.549Z,6.68
2022-09-15T22:56:20.096Z,6.22
2022-09-15T22:58:48.885Z,4.13
2022-09-15T23:01:21.841Z,6.90
2022-09-15T23:03:56.748Z,7.05
2022-09-15T23:06:25.539Z,6.90
2022-09-15T23:08:54.815Z,5.05
2022-09-15T23:11:22.138Z,3.90
2022-09-15T23:13:49.680Z,7.10
2022-09-15T23:16:17.329Z,7.03
2022-09-15T23:18:44.786Z,5.88
2022-09-15T23:21:13.552Z,6.82
2022-09-15T23:23:43.443Z,2.75
2022-09-15T23:26:12.610Z,8.32
2022-09-15T23:28:40.559Z,8.35
2022-09-15T23:31:10.380Z,8.23
2022-09-15T23:33:37.428Z,6.55
2022-09-15T23:36:07.326Z,5.15
2022-09-15T23:38:38.649Z,9.50
2022-09-15T23:41:06.566Z,3.92
2022-09-15T23:43:33.661Z,3.85
2022-09-15T23:46:01.585Z,4.65
2022-09-15T23:48:29.202Z,7.10
2022-09-15T23:50:56.219Z,7.10
2022-09-15T23:53:23.334Z,8.15
2022-09-15T23:55:50.669Z,4.50
2022-09-15T23:58:18.889Z,6.15
